sensor_id;sensor_type;location;lat;lon;timestamp;P1;durP1;ratioP1;P2;durP2;ratioP2
75698;SDS011;64313;51.018;13.742;2023-03-13T00:01:38;11.35;;;3.08;;
75698;SDS011;64313;51.018;13.742;2023-03-13T00:04:05;7.90;;;2.25;;
75698;SDS011;64313;51.018;13.742;2023-03-13T00:06:32;10.32;;;2.17;;
75698;SDS011;64313;51.018;13.742;2023-03-13T00:09:00;10.52;;;2.10;;
75698;SDS011;64313;51.018;13.742;2023-03-13T00:11:26;7.53;;;2.03;;
75698;SDS011;64313;51.018;13.742;2023-03-13T00:13:55;8.77;;;2.03;;
75698;SDS011;64313;51.018;13.742;2023-03-13T00:16:22;10.48;;;1.98;;
75698;SDS011;64313;51.018;13.742;2023-03-13T00:18:49;8.63;;;2.00;;
75698;SDS011;64313;51.018;13.742;2023-03-13T00:21:16;11.95;;;1.98;;
75698;SDS011;64313;51.018;13.742;2023-03-13T00:23:42;9.55;;;2.22;;
75698;SDS011;64313;51.018;13.742;2023-03-13T00:26:09;7.68;;;1.90;;
75698;SDS011;64313;51.018;13.742;2023-03-13T00:28:37;5.72;;;1.73;;
75698;SDS011;64313;51.018;13.742;2023-03-13T00:33:32;8.70;;;2.17;;
75698;SDS011;64313;51.018;13.742;2023-03-13T00:35:58;7.45;;;1.92;;
75698;SDS011;64313;51.018;13.742;2023-03-13T00:38:26;8.50;;;1.90;;
75698;SDS011;64313;51.018;13.742;2023-03-13T00:40:59;6.55;;;1.80;;
75698;SDS011;64313;51.018;13.742;2023-03-13T00:43:31;10.15;;;1.98;;
75698;SDS011;64313;51.018;13.742;2023-03-13T00:45:58;9.38;;;1.92;;
75698;SDS011;64313;51.018;13.742;2023-03-13T00:48:24;7.35;;;1.90;;
75698;SDS011;64313;51.018;13.742;2023-03-13T00:53:15;10.35;;;2.15;;
75698;SDS011;64313;51.018;13.742;2023-03-13T00:58:43;11.10;;;2.30;;
75698;SDS011;64313;51.018;13.742;2023-03-13T01:03:37;9.88;;;2.08;;
75698;SDS011;64313;51.018;13.742;2023-03-13T01:06:04;8.40;;;1.85;;
75698;SDS011;64313;51.018;13.742;2023-03-13T01:08:31;10.07;;;1.98;;
75698;SDS011;64313;51.018;13.742;2023-03-13T01:11:16;8.38;;;1.98;;
75698;SDS011;64313;51.018;13.742;2023-03-13T01:13:43;8.55;;;1.83;;
75698;SDS011;64313;51.018;13.742;2023-03-13T01:16:11;11.48;;;2.17;;
75698;SDS011;64313;51.018;13.742;2023-03-13T01:18:38;12.90;;;2.03;;
75698;SDS011;64313;51.018;13.742;2023-03-13T01:21:08;8.15;;;1.85;;
75698;SDS011;64313;51.018;13.742;2023-03-13T01:23:35;10.48;;;2.10;;
75698;SDS011;64313;51.018;13.742;2023-03-13T01:26:02;10.50;;;2.15;;
75698;SDS011;64313;51.018;13.742;2023-03-13T01:28:29;9.15;;;1.90;;
75698;SDS011;64313;51.018;13.742;2023-03-13T01:30:54;7.78;;;1.80;;
75698;SDS011;64313;51.018;13.742;2023-03-13T01:33:20;6.78;;;1.65;;
75698;SDS011;64313;51.018;13.742;2023-03-13T01:35:46;9.82;;;1.95;;
75698;SDS011;64313;51.018;13.742;2023-03-13T01:38:12;9.40;;;1.92;;
75698;SDS011;64313;51.018;13.742;2023-03-13T01:40:38;9.10;;;1.70;;
75698;SDS011;64313;51.018;13.742;2023-03-13T01:43:18;11.00;;;1.90;;
75698;SDS011;64313;51.018;13.742;2023-03-13T01:45:53;9.35;;;2.13;;
75698;SDS011;64313;51.018;13.742;2023-03-13T01:48:25;9.73;;;2.08;;
75698;SDS011;64313;51.018;13.742;2023-03-13T01:50:59;6.80;;;1.98;;
75698;SDS011;64313;51.018;13.742;2023-03-13T01:53:27;10.48;;;2.00;;
75698;SDS011;64313;51.018;13.742;2023-03-13T01:55:57;9.20;;;1.80;;
75698;SDS011;64313;51.018;13.742;2023-03-13T01:58:25;6.53;;;1.60;;
75698;SDS011;64313;51.018;13.742;2023-03-13T02:00:54;7.68;;;1.63;;
75698;SDS011;64313;51.018;13.742;2023-03-13T02:03:19;7.55;;;1.55;;
75698;SDS011;64313;51.018;13.742;2023-03-13T02:05:46;10.45;;;1.73;;
75698;SDS011;64313;51.018;13.742;2023-03-13T02:08:16;9.02;;;2.67;;
75698;SDS011;64313;51.018;13.742;2023-03-13T02:10:48;10.73;;;1.88;;
75698;SDS011;64313;51.018;13.742;2023-03-13T02:13:17;8.00;;;1.50;;
75698;SDS011;64313;51.018;13.742;2023-03-13T02:15:44;9.32;;;1.65;;
75698;SDS011;64313;51.018;13.742;2023-03-13T02:18:11;9.60;;;1.92;;
75698;SDS011;64313;51.018;13.742;2023-03-13T02:20:37;14.90;;;2.00;;
75698;SDS011;64313;51.018;13.742;2023-03-13T02:23:11;12.35;;;2.13;;
75698;SDS011;64313;51.018;13.742;2023-03-13T02:25:45;10.63;;;2.05;;
75698;SDS011;64313;51.018;13.742;2023-03-13T02:28:26;9.10;;;1.52;;
75698;SDS011;64313;51.018;13.742;2023-03-13T02:30:57;12.48;;;2.00;;
75698;SDS011;64313;51.018;13.742;2023-03-13T02:33:25;11.35;;;2.10;;
75698;SDS011;64313;51.018;13.742;2023-03-13T02:35:53;11.57;;;2.05;;
75698;SDS011;64313;51.018;13.742;2023-03-13T02:38:20;10.60;;;2.05;;
75698;SDS011;64313;51.018;13.742;2023-03-13T02:40:49;10.45;;;2.08;;
75698;SDS011;64313;51.018;13.742;2023-03-13T02:43:19;10.07;;;1.90;;
75698;SDS011;64313;51.018;13.742;2023-03-13T02:46:08;8.63;;;1.95;;
75698;SDS011;64313;51.018;13.742;2023-03-13T02:48:42;11.25;;;1.90;;
75698;SDS011;64313;51.018;13.742;2023-03-13T02:53:54;9.68;;;1.70;;
75698;SDS011;64313;51.018;13.742;2023-03-13T02:56:26;12.23;;;1.98;;
75698;SDS011;64313;51.018;13.742;2023-03-13T02:58:54;11.73;;;1.98;;
75698;SDS011;64313;51.018;13.742;2023-03-13T03:01:22;10.90;;;2.00;;
75698;SDS011;64313;51.018;13.742;2023-03-13T03:03:48;9.63;;;1.65;;
75698;SDS011;64313;51.018;13.742;2023-03-13T03:06:14;14.00;;;2.00;;
75698;SDS011;64313;51.018;13.742;2023-03-13T03:08:40;9.95;;;1.90;;
75698;SDS011;64313;51.018;13.742;2023-03-13T03:11:09;10.52;;;1.85;;
75698;SDS011;64313;51.018;13.742;2023-03-13T03:13:35;10.10;;;1.90;;
75698;SDS011;64313;51.018;13.742;2023-03-13T03:16:10;9.98;;;1.90;;
75698;SDS011;64313;51.018;13.742;2023-03-13T03:18:39;10.68;;;2.05;;
75698;SDS011;64313;51.018;13.742;2023-03-13T03:21:05;8.30;;;1.63;;
75698;SDS011;64313;51.018;13.742;2023-03-13T03:23:35;9.02;;;1.63;;
75698;SDS011;64313;51.018;13.742;2023-03-13T03:26:01;9.93;;;2.00;;
75698;SDS011;64313;51.018;13.742;2023-03-13T03:28:29;11.93;;;1.65;;
75698;SDS011;64313;51.018;13.742;2023-03-13T03:30:56;11.65;;;1.58;;
75698;SDS011;64313;51.018;13.742;2023-03-13T03:33:22;13.45;;;1.85;;
75698;SDS011;64313;51.018;13.742;2023-03-13T03:35:48;10.18;;;1.83;;
75698;SDS011;64313;51.018;13.742;2023-03-13T03:38:14;9.32;;;1.70;;
75698;SDS011;64313;51.018;13.742;2023-03-13T03:40:40;9.63;;;1.90;;
75698;SDS011;64313;51.018;13.742;2023-03-13T03:43:05;11.20;;;1.90;;
75698;SDS011;64313;51.018;13.742;2023-03-13T03:45:31;10.38;;;1.95;;
75698;SDS011;64313;51.018;13.742;2023-03-13T03:47:56;8.07;;;1.40;;
75698;SDS011;64313;51.018;13.742;2023-03-13T03:50:24;7.60;;;1.65;;
75698;SDS011;64313;51.018;13.742;2023-03-13T03:52:57;11.38;;;1.88;;
75698;SDS011;64313;51.018;13.742;2023-03-13T03:55:24;8.77;;;1.73;;
75698;SDS011;64313;51.018;13.742;2023-03-13T03:57:49;10.80;;;1.80;;
75698;SDS011;64313;51.018;13.742;2023-03-13T04:00:25;8.15;;;1.60;;
75698;SDS011;64313;51.018;13.742;2023-03-13T04:02:52;9.73;;;1.45;;
75698;SDS011;64313;51.018;13.742;2023-03-13T04:05:20;9.80;;;1.90;;
75698;SDS011;64313;51.018;13.742;2023-03-13T04:07:46;8.85;;;1.50;;
75698;SDS011;64313;51.018;13.742;2023-03-13T04:10:12;10.18;;;1.55;;
75698;SDS011;64313;51.018;13.742;2023-03-13T04:12:42;8.40;;;1.50;;
75698;SDS011;64313;51.018;13.742;2023-03-13T04:15:07;9.13;;;1.55;;
75698;SDS011;64313;51.018;13.742;2023-03-13T04:17:35;8.73;;;1.58;;
75698;SDS011;64313;51.018;13.742;2023-03-13T04:20:00;9.38;;;1.65;;
75698;SDS011;64313;51.018;13.742;2023-03-13T04:22:28;8.00;;;1.08;;
75698;SDS011;64313;51.018;13.742;2023-03-13T04:24:56;7.22;;;1.38;;
75698;SDS011;64313;51.018;13.742;2023-03-13T04:27:22;8.00;;;1.73;;
75698;SDS011;64313;51.018;13.742;2023-03-13T04:29:49;8.40;;;1.60;;
75698;SDS011;64313;51.018;13.742;2023-03-13T04:32:41;7.38;;;1.45;;
75698;SDS011;64313;51.018;13.742;2023-03-13T04:37:59;8.43;;;2.15;;
75698;SDS011;64313;51.018;13.742;2023-03-13T04:40:44;8.95;;;1.40;;
75698;SDS011;64313;51.018;13.742;2023-03-13T04:43:45;12.77;;;2.58;;
75698;SDS011;64313;51.018;13.742;2023-03-13T04:46:39;7.18;;;1.40;;
75698;SDS011;64313;51.018;13.742;2023-03-13T04:49:23;7.80;;;1.50;;
75698;SDS011;64313;51.018;13.742;2023-03-13T04:52:10;6.40;;;1.60;;
75698;SDS011;64313;51.018;13.742;2023-03-13T04:54:51;10.48;;;1.88;;
75698;SDS011;64313;51.018;13.742;2023-03-13T04:57:34;12.65;;;1.70;;
75698;SDS011;64313;51.018;13.742;2023-03-13T05:00:11;9.63;;;1.70;;
75698;SDS011;64313;51.018;13.742;2023-03-13T05:03:01;7.97;;;1.40;;
75698;SDS011;64313;51.018;13.742;2023-03-13T05:05:45;10.10;;;1.60;;
75698;SDS011;64313;51.018;13.742;2023-03-13T05:08:19;11.88;;;1.92;;
75698;SDS011;64313;51.018;13.742;2023-03-13T05:11:08;9.95;;;1.70;;
75698;SDS011;64313;51.018;13.742;2023-03-13T05:16:21;8.73;;;1.35;;
75698;SDS011;64313;51.018;13.742;2023-03-13T05:19:13;7.97;;;1.80;;
75698;SDS011;64313;51.018;13.742;2023-03-13T05:21:58;7.53;;;1.83;;
75698;SDS011;64313;51.018;13.742;2023-03-13T05:27:31;8.63;;;1.92;;
75698;SDS011;64313;51.018;13.742;2023-03-13T05:30:20;8.45;;;1.70;;
75698;SDS011;64313;51.018;13.742;2023-03-13T05:33:04;10.35;;;1.90;;
75698;SDS011;64313;51.018;13.742;2023-03-13T05:35:54;11.00;;;1.73;;
75698;SDS011;64313;51.018;13.742;2023-03-13T05:38:36;8.35;;;1.58;;
75698;SDS011;64313;51.018;13.742;2023-03-13T05:41:19;7.53;;;1.40;;
75698;SDS011;64313;51.018;13.742;2023-03-13T05:44:16;9.57;;;1.85;;
75698;SDS011;64313;51.018;13.742;2023-03-13T05:46:48;9.40;;;1.80;;
75698;SDS011;64313;51.018;13.742;2023-03-13T05:49:49;10.23;;;1.70;;
75698;SDS011;64313;51.018;13.742;2023-03-13T05:52:33;10.77;;;1.60;;
75698;SDS011;64313;51.018;13.742;2023-03-13T05:55:13;8.07;;;1.52;;
75698;SDS011;64313;51.018;13.742;2023-03-13T05:57:58;12.88;;;1.80;;
75698;SDS011;64313;51.018;13.742;2023-03-13T06:00:44;8.85;;;1.70;;
75698;SDS011;64313;51.018;13.742;2023-03-13T06:03:29;8.63;;;1.80;;
75698;SDS011;64313;51.018;13.742;2023-03-13T06:05:56;9.90;;;1.80;;
75698;SDS011;64313;51.018;13.742;2023-03-13T06:08:41;8.68;;;1.70;;
75698;SDS011;64313;51.018;13.742;2023-03-13T06:11:06;6.60;;;1.42;;
75698;SDS011;64313;51.018;13.742;2023-03-13T06:13:32;9.65;;;1.58;;
75698;SDS011;64313;51.018;13.742;2023-03-13T06:16:03;7.05;;;1.85;;
75698;SDS011;64313;51.018;13.742;2023-03-13T06:18:46;8.80;;;2.10;;
75698;SDS011;64313;51.018;13.742;2023-03-13T06:21:12;11.45;;;3.00;;
75698;SDS011;64313;51.018;13.742;2023-03-13T06:23:38;10.45;;;2.75;;
75698;SDS011;64313;51.018;13.742;2023-03-13T06:26:03;10.95;;;2.90;;
75698;SDS011;64313;51.018;13.742;2023-03-13T06:30:54;8.45;;;1.98;;
75698;SDS011;64313;51.018;13.742;2023-03-13T06:33:24;11.00;;;2.47;;
75698;SDS011;64313;51.018;13.742;2023-03-13T06:35:50;11.55;;;2.95;;
75698;SDS011;64313;51.018;13.742;2023-03-13T06:38:15;11.98;;;3.10;;
75698;SDS011;64313;51.018;13.742;2023-03-13T06:40:40;11.02;;;2.53;;
75698;SDS011;64313;51.018;13.742;2023-03-13T06:43:06;8.48;;;2.25;;
75698;SDS011;64313;51.018;13.742;2023-03-13T06:45:33;10.10;;;2.63;;
75698;SDS011;64313;51.018;13.742;2023-03-13T06:47:59;11.75;;;3.13;;
75698;SDS011;64313;51.018;13.742;2023-03-13T06:50:24;12.68;;;3.60;;
75698;SDS011;64313;51.018;13.742;2023-03-13T06:52:50;15.02;;;4.03;;
75698;SDS011;64313;51.018;13.742;2023-03-13T06:55:15;11.90;;;3.00;;
75698;SDS011;64313;51.018;13.742;2023-03-13T06:57:40;11.50;;;2.63;;
75698;SDS011;64313;51.018;13.742;2023-03-13T07:00:06;10.27;;;2.42;;
75698;SDS011;64313;51.018;13.742;2023-03-13T07:02:35;8.98;;;2.40;;
75698;SDS011;64313;51.018;13.742;2023-03-13T07:05:00;10.63;;;2.40;;
75698;SDS011;64313;51.018;13.742;2023-03-13T07:07:30;9.50;;;2.15;;
75698;SDS011;64313;51.018;13.742;2023-03-13T07:09:57;9.40;;;2.20;;
75698;SDS011;64313;51.018;13.742;2023-03-13T07:12:22;8.27;;;2.15;;
75698;SDS011;64313;51.018;13.742;2023-03-13T07:14:47;9.38;;;1.90;;
75698;SDS011;64313;51.018;13.742;2023-03-13T07:17:13;5.70;;;1.67;;
75698;SDS011;64313;51.018;13.742;2023-03-13T07:19:38;7.60;;;2.15;;
75698;SDS011;64313;51.018;13.742;2023-03-13T07:22:03;5.95;;;1.83;;
75698;SDS011;64313;51.018;13.742;2023-03-13T07:24:29;9.50;;;1.65;;
75698;SDS011;64313;51.018;13.742;2023-03-13T07:26:55;8.32;;;1.73;;
75698;SDS011;64313;51.018;13.742;2023-03-13T07:29:21;7.85;;;1.77;;
75698;SDS011;64313;51.018;13.742;2023-03-13T07:31:46;8.48;;;1.88;;
75698;SDS011;64313;51.018;13.742;2023-03-13T07:34:11;6.75;;;1.63;;
75698;SDS011;64313;51.018;13.742;2023-03-13T07:36:37;5.68;;;1.30;;
75698;SDS011;64313;51.018;13.742;2023-03-13T07:39:04;7.65;;;1.58;;
75698;SDS011;64313;51.018;13.742;2023-03-13T07:41:29;9.38;;;1.50;;
75698;SDS011;64313;51.018;13.742;2023-03-13T07:43:54;6.28;;;1.30;;
75698;SDS011;64313;51.018;13.742;2023-03-13T07:46:20;7.13;;;2.00;;
75698;SDS011;64313;51.018;13.742;2023-03-13T07:48:45;6.93;;;1.52;;
75698;SDS011;64313;51.018;13.742;2023-03-13T07:51:15;7.75;;;1.30;;
75698;SDS011;64313;51.018;13.742;2023-03-13T07:53:45;5.53;;;1.52;;
75698;SDS011;64313;51.018;13.742;2023-03-13T07:56:15;8.23;;;1.70;;
75698;SDS011;64313;51.018;13.742;2023-03-13T07:58:43;5.90;;;1.20;;
75698;SDS011;64313;51.018;13.742;2023-03-13T08:01:09;5.93;;;1.40;;
75698;SDS011;64313;51.018;13.742;2023-03-13T08:03:42;7.78;;;1.90;;
75698;SDS011;64313;51.018;13.742;2023-03-13T08:06:10;8.20;;;2.00;;
75698;SDS011;64313;51.018;13.742;2023-03-13T08:08:37;8.13;;;1.80;;
75698;SDS011;64313;51.018;13.742;2023-03-13T08:11:04;5.63;;;1.48;;
75698;SDS011;64313;51.018;13.742;2023-03-13T08:13:34;6.07;;;1.48;;
75698;SDS011;64313;51.018;13.742;2023-03-13T08:16:01;6.20;;;1.80;;
75698;SDS011;64313;51.018;13.742;2023-03-13T08:18:46;8.20;;;1.63;;
75698;SDS011;64313;51.018;13.742;2023-03-13T08:21:14;5.82;;;2.15;;
75698;SDS011;64313;51.018;13.742;2023-03-13T08:23:42;8.63;;;1.50;;
75698;SDS011;64313;51.018;13.742;2023-03-13T08:26:15;6.78;;;1.52;;
75698;SDS011;64313;51.018;13.742;2023-03-13T08:28:42;5.85;;;1.45;;
75698;SDS011;64313;51.018;13.742;2023-03-13T08:31:13;6.75;;;1.58;;
75698;SDS011;64313;51.018;13.742;2023-03-13T08:33:41;4.90;;;1.30;;
75698;SDS011;64313;51.018;13.742;2023-03-13T08:36:12;6.63;;;1.58;;
75698;SDS011;64313;51.018;13.742;2023-03-13T08:38:39;6.22;;;1.58;;
75698;SDS011;64313;51.018;13.742;2023-03-13T08:41:07;5.97;;;1.60;;
75698;SDS011;64313;51.018;13.742;2023-03-13T08:43:33;5.75;;;1.40;;
75698;SDS011;64313;51.018;13.742;2023-03-13T08:45:58;6.35;;;1.52;;
75698;SDS011;64313;51.018;13.742;2023-03-13T08:48:23;6.47;;;1.63;;
75698;SDS011;64313;51.018;13.742;2023-03-13T08:50:58;5.18;;;1.40;;
75698;SDS011;64313;51.018;13.742;2023-03-13T08:53:24;7.40;;;1.50;;
75698;SDS011;64313;51.018;13.742;2023-03-13T08:55:53;6.28;;;1.40;;
75698;SDS011;64313;51.018;13.742;2023-03-13T08:58:19;4.38;;;1.30;;
75698;SDS011;64313;51.018;13.742;2023-03-13T09:00:44;5.00;;;1.50;;
75698;SDS011;64313;51.018;13.742;2023-03-13T09:03:09;6.65;;;1.70;;
75698;SDS011;64313;51.018;13.742;2023-03-13T09:05:36;7.20;;;1.38;;
75698;SDS011;64313;51.018;13.742;2023-03-13T09:08:01;5.35;;;1.25;;
75698;SDS011;64313;51.018;13.742;2023-03-13T09:10:27;6.05;;;1.50;;
75698;SDS011;64313;51.018;13.742;2023-03-13T09:12:52;5.53;;;1.50;;
75698;SDS011;64313;51.018;13.742;2023-03-13T09:15:17;4.13;;;1.30;;
75698;SDS011;64313;51.018;13.742;2023-03-13T09:17:43;4.75;;;1.30;;
75698;SDS011;64313;51.018;13.742;2023-03-13T09:20:08;5.65;;;1.27;;
75698;SDS011;64313;51.018;13.742;2023-03-13T09:22:34;4.00;;;1.15;;
75698;SDS011;64313;51.018;13.742;2023-03-13T09:24:59;4.30;;;1.30;;
75698;SDS011;64313;51.018;13.742;2023-03-13T09:27:25;4.57;;;1.00;;
75698;SDS011;64313;51.018;13.742;2023-03-13T09:29:52;4.45;;;1.00;;
75698;SDS011;64313;51.018;13.742;2023-03-13T09:32:17;3.63;;;1.10;;
75698;SDS011;64313;51.018;13.742;2023-03-13T09:34:44;4.47;;;1.25;;
75698;SDS011;64313;51.018;13.742;2023-03-13T09:37:10;4.07;;;1.20;;
75698;SDS011;64313;51.018;13.742;2023-03-13T09:39:36;4.50;;;1.05;;
75698;SDS011;64313;51.018;13.742;2023-03-13T09:42:03;4.78;;;1.25;;
75698;SDS011;64313;51.018;13.742;2023-03-13T09:44:51;3.50;;;1.10;;
75698;SDS011;64313;51.018;13.742;2023-03-13T09:47:37;3.72;;;1.05;;
75698;SDS011;64313;51.018;13.742;2023-03-13T09:50:23;3.50;;;0.95;;
75698;SDS011;64313;51.018;13.742;2023-03-13T09:52:54;5.25;;;1.58;;
75698;SDS011;64313;51.018;13.742;2023-03-13T09:55:27;3.70;;;1.10;;
75698;SDS011;64313;51.018;13.742;2023-03-13T09:57:57;5.68;;;0.98;;
75698;SDS011;64313;51.018;13.742;2023-03-13T10:00:26;4.20;;;1.10;;
75698;SDS011;64313;51.018;13.742;2023-03-13T10:05:28;3.35;;;0.90;;
75698;SDS011;64313;51.018;13.742;2023-03-13T10:07:59;3.00;;;0.93;;
75698;SDS011;64313;51.018;13.742;2023-03-13T10:10:46;4.93;;;1.10;;
75698;SDS011;64313;51.018;13.742;2023-03-13T10:16:23;3.80;;;1.00;;
75698;SDS011;64313;51.018;13.742;2023-03-13T10:18:54;2.75;;;0.90;;
75698;SDS011;64313;51.018;13.742;2023-03-13T10:21:22;2.42;;;0.90;;
75698;SDS011;64313;51.018;13.742;2023-03-13T10:24:25;2.88;;;0.90;;
75698;SDS011;64313;51.018;13.742;2023-03-13T10:27:01;2.10;;;0.70;;
75698;SDS011;64313;51.018;13.742;2023-03-13T10:29:28;1.90;;;0.73;;
75698;SDS011;64313;51.018;13.742;2023-03-13T10:31:56;3.00;;;1.10;;
75698;SDS011;64313;51.018;13.742;2023-03-13T10:34:26;3.08;;;0.90;;
75698;SDS011;64313;51.018;13.742;2023-03-13T10:36:54;2.53;;;0.73;;
75698;SDS011;64313;51.018;13.742;2023-03-13T10:39:23;3.13;;;1.08;;
75698;SDS011;64313;51.018;13.742;2023-03-13T10:41:50;2.63;;;0.85;;
75698;SDS011;64313;51.018;13.742;2023-03-13T10:44:23;1.45;;;0.63;;
75698;SDS011;64313;51.018;13.742;2023-03-13T10:46:57;2.80;;;0.80;;
75698;SDS011;64313;51.018;13.742;2023-03-13T10:49:25;3.13;;;0.77;;
75698;SDS011;64313;51.018;13.742;2023-03-13T10:51:52;2.28;;;0.80;;
75698;SDS011;64313;51.018;13.742;2023-03-13T10:54:21;2.00;;;0.63;;
75698;SDS011;64313;51.018;13.742;2023-03-13T10:56:49;3.08;;;0.88;;
75698;SDS011;64313;51.018;13.742;2023-03-13T10:59:24;2.38;;;0.80;;
75698;SDS011;64313;51.018;13.742;2023-03-13T11:01:51;2.75;;;0.90;;
75698;SDS011;64313;51.018;13.742;2023-03-13T11:04:29;1.67;;;0.70;;
75698;SDS011;64313;51.018;13.742;2023-03-13T11:07:03;2.15;;;0.63;;
75698;SDS011;64313;51.018;13.742;2023-03-13T11:09:29;2.08;;;0.70;;
75698;SDS011;64313;51.018;13.742;2023-03-13T11:12:10;2.15;;;0.80;;
75698;SDS011;64313;51.018;13.742;2023-03-13T11:14:44;2.38;;;0.60;;
75698;SDS011;64313;51.018;13.742;2023-03-13T11:17:13;3.03;;;1.00;;
75698;SDS011;64313;51.018;13.742;2023-03-13T11:22:49;2.85;;;0.77;;
75698;SDS011;64313;51.018;13.742;2023-03-13T11:25:34;3.60;;;0.70;;
75698;SDS011;64313;51.018;13.742;2023-03-13T11:31:18;2.45;;;1.10;;
75698;SDS011;64313;51.018;13.742;2023-03-13T11:36:23;2.35;;;0.80;;
75698;SDS011;64313;51.018;13.742;2023-03-13T11:39:02;3.05;;;0.80;;
75698;SDS011;64313;51.018;13.742;2023-03-13T11:41:44;3.60;;;1.00;;
75698;SDS011;64313;51.018;13.742;2023-03-13T11:58:46;2.20;;;0.77;;
75698;SDS011;64313;51.018;13.742;2023-03-13T12:01:25;5.15;;;1.33;;
75698;SDS011;64313;51.018;13.742;2023-03-13T12:06:30;3.35;;;1.20;;
75698;SDS011;64313;51.018;13.742;2023-03-13T12:09:04;2.50;;;0.80;;
75698;SDS011;64313;51.018;13.742;2023-03-13T12:11:42;2.75;;;1.00;;
75698;SDS011;64313;51.018;13.742;2023-03-13T12:14:36;2.83;;;0.80;;
75698;SDS011;64313;51.018;13.742;2023-03-13T12:17:08;2.42;;;0.70;;
75698;SDS011;64313;51.018;13.742;2023-03-13T12:19:46;2.85;;;0.73;;
75698;SDS011;64313;51.018;13.742;2023-03-13T12:22:17;3.28;;;0.95;;
75698;SDS011;64313;51.018;13.742;2023-03-13T12:24:54;2.28;;;0.80;;
75698;SDS011;64313;51.018;13.742;2023-03-13T12:27:41;2.25;;;0.90;;
75698;SDS011;64313;51.018;13.742;2023-03-13T12:36:01;2.33;;;0.75;;
75698;SDS011;64313;51.018;13.742;2023-03-13T12:43:56;3.05;;;0.65;;
75698;SDS011;64313;51.018;13.742;2023-03-13T12:46:35;1.10;;;0.60;;
75698;SDS011;64313;51.018;13.742;2023-03-13T12:49:21;2.08;;;0.70;;
75698;SDS011;64313;51.018;13.742;2023-03-13T12:52:07;1.67;;;0.60;;
75698;SDS011;64313;51.018;13.742;2023-03-13T13:00:34;2.42;;;1.00;;
75698;SDS011;64313;51.018;13.742;2023-03-13T13:03:05;3.50;;;0.80;;
75698;SDS011;64313;51.018;13.742;2023-03-13T13:05:32;1.88;;;0.68;;
75698;SDS011;64313;51.018;13.742;2023-03-13T13:07:57;1.67;;;0.60;;
75698;SDS011;64313;51.018;13.742;2023-03-13T13:10:23;1.77;;;0.60;;
75698;SDS011;64313;51.018;13.742;2023-03-13T13:16:05;2.45;;;0.80;;
75698;SDS011;64313;51.018;13.742;2023-03-13T13:18:35;2.05;;;0.77;;
75698;SDS011;64313;51.018;13.742;2023-03-13T13:23:38;3.20;;;0.83;;
75698;SDS011;64313;51.018;13.742;2023-03-13T13:28:53;2.22;;;0.90;;
75698;SDS011;64313;51.018;13.742;2023-03-13T13:39:42;2.85;;;0.70;;
75698;SDS011;64313;51.018;13.742;2023-03-13T13:47:22;3.38;;;0.65;;
75698;SDS011;64313;51.018;13.742;2023-03-13T13:49:51;3.10;;;0.70;;
75698;SDS011;64313;51.018;13.742;2023-03-13T13:52:29;2.08;;;0.80;;
75698;SDS011;64313;51.018;13.742;2023-03-13T13:54:57;1.92;;;0.77;;
75698;SDS011;64313;51.018;13.742;2023-03-13T13:57:24;2.58;;;0.80;;
75698;SDS011;64313;51.018;13.742;2023-03-13T13:59:53;2.63;;;0.70;;
75698;SDS011;64313;51.018;13.742;2023-03-13T14:02:35;2.20;;;0.63;;
75698;SDS011;64313;51.018;13.742;2023-03-13T14:05:15;2.53;;;0.80;;
75698;SDS011;64313;51.018;13.742;2023-03-13T14:07:46;2.40;;;0.80;;
75698;SDS011;64313;51.018;13.742;2023-03-13T14:10:20;2.70;;;0.90;;
75698;SDS011;64313;51.018;13.742;2023-03-13T14:12:52;3.50;;;0.70;;
75698;SDS011;64313;51.018;13.742;2023-03-13T14:15:20;1.73;;;0.80;;
75698;SDS011;64313;51.018;13.742;2023-03-13T14:17:49;4.30;;;0.90;;
75698;SDS011;64313;51.018;13.742;2023-03-13T14:23:02;3.88;;;0.85;;
75698;SDS011;64313;51.018;13.742;2023-03-13T14:25:43;3.15;;;0.80;;
75698;SDS011;64313;51.018;13.742;2023-03-13T14:30:42;5.32;;;1.25;;
75698;SDS011;64313;51.018;13.742;2023-03-13T14:33:08;2.92;;;0.80;;
75698;SDS011;64313;51.018;13.742;2023-03-13T14:35:33;1.88;;;0.73;;
75698;SDS011;64313;51.018;13.742;2023-03-13T14:38:02;2.17;;;0.73;;
75698;SDS011;64313;51.018;13.742;2023-03-13T14:40:28;1.85;;;0.80;;
75698;SDS011;64313;51.018;13.742;2023-03-13T14:42:57;1.90;;;0.75;;
75698;SDS011;64313;51.018;13.742;2023-03-13T14:45:32;1.95;;;0.75;;
75698;SDS011;64313;51.018;13.742;2023-03-13T14:48:03;2.42;;;0.90;;
75698;SDS011;64313;51.018;13.742;2023-03-13T14:50:37;2.40;;;0.80;;
75698;SDS011;64313;51.018;13.742;2023-03-13T14:53:03;2.05;;;0.80;;
75698;SDS011;64313;51.018;13.742;2023-03-13T14:55:44;2.67;;;0.82;;
75698;SDS011;64313;51.018;13.742;2023-03-13T15:00:48;3.60;;;0.93;;
75698;SDS011;64313;51.018;13.742;2023-03-13T15:05:41;3.00;;;0.75;;
75698;SDS011;64313;51.018;13.742;2023-03-13T15:08:23;2.38;;;0.90;;
75698;SDS011;64313;51.018;13.742;2023-03-13T15:10:48;1.98;;;0.80;;
75698;SDS011;64313;51.018;13.742;2023-03-13T15:13:31;2.40;;;0.80;;
75698;SDS011;64313;51.018;13.742;2023-03-13T15:15:58;2.50;;;1.00;;
75698;SDS011;64313;51.018;13.742;2023-03-13T15:18:33;2.63;;;0.90;;
75698;SDS011;64313;51.018;13.742;2023-03-13T15:26:02;2.88;;;1.00;;
75698;SDS011;64313;51.018;13.742;2023-03-13T15:28:28;3.45;;;1.00;;
75698;SDS011;64313;51.018;13.742;2023-03-13T15:30:54;2.67;;;1.13;;
75698;SDS011;64313;51.018;13.742;2023-03-13T15:33:21;4.07;;;1.10;;
75698;SDS011;64313;51.018;13.742;2023-03-13T15:35:47;4.65;;;1.70;;
75698;SDS011;64313;51.018;13.742;2023-03-13T15:38:18;3.58;;;1.40;;
75698;SDS011;64313;51.018;13.742;2023-03-13T15:40:45;2.63;;;1.00;;
75698;SDS011;64313;51.018;13.742;2023-03-13T15:43:11;3.00;;;0.90;;
75698;SDS011;64313;51.018;13.742;2023-03-13T15:45:37;3.47;;;1.00;;
75698;SDS011;64313;51.018;13.742;2023-03-13T15:48:10;4.50;;;1.77;;
75698;SDS011;64313;51.018;13.742;2023-03-13T15:50:39;4.45;;;1.70;;
75698;SDS011;64313;51.018;13.742;2023-03-13T15:53:15;4.03;;;1.40;;
75698;SDS011;64313;51.018;13.742;2023-03-13T15:55:43;3.42;;;1.20;;
75698;SDS011;64313;51.018;13.742;2023-03-13T15:58:10;3.78;;;1.20;;
75698;SDS011;64313;51.018;13.742;2023-03-13T16:00:35;2.95;;;0.90;;
75698;SDS011;64313;51.018;13.742;2023-03-13T16:03:01;4.05;;;1.30;;
75698;SDS011;64313;51.018;13.742;2023-03-13T16:05:26;3.22;;;1.00;;
75698;SDS011;64313;51.018;13.742;2023-03-13T16:07:53;4.10;;;1.10;;
75698;SDS011;64313;51.018;13.742;2023-03-13T16:10:20;2.88;;;1.00;;
75698;SDS011;64313;51.018;13.742;2023-03-13T16:16:37;3.08;;;1.02;;
75698;SDS011;64313;51.018;13.742;2023-03-13T16:19:03;2.47;;;1.00;;
75698;SDS011;64313;51.018;13.742;2023-03-13T16:21:32;3.20;;;1.15;;
75698;SDS011;64313;51.018;13.742;2023-03-13T16:23:58;3.03;;;1.13;;
75698;SDS011;64313;51.018;13.742;2023-03-13T16:26:25;3.75;;;1.00;;
75698;SDS011;64313;51.018;13.742;2023-03-13T16:28:52;2.30;;;0.90;;
75698;SDS011;64313;51.018;13.742;2023-03-13T16:31:28;2.47;;;1.00;;
75698;SDS011;64313;51.018;13.742;2023-03-13T16:33:55;2.17;;;0.77;;
75698;SDS011;64313;51.018;13.742;2023-03-13T16:36:31;1.70;;;0.77;;
75698;SDS011;64313;51.018;13.742;2023-03-13T16:39:04;2.17;;;0.90;;
75698;SDS011;64313;51.018;13.742;2023-03-13T16:44:21;2.72;;;0.90;;
75698;SDS011;64313;51.018;13.742;2023-03-13T16:47:03;3.03;;;0.90;;
75698;SDS011;64313;51.018;13.742;2023-03-13T16:49:39;2.40;;;0.90;;